sensor_id;sensor_type;location;lat;lon;timestamp;temperature;humidity
65864;SHT30;52639;51.180;20.460;2023-10-09T00:02:11;-2.04;84.52
65864;SHT30;52639;51.180;20.460;2023-10-09T00:06:15;-2.01;84.61
65864;SHT30;52639;51.180;20.460;2023-10-09T00:10:41;-2.04;84.12
65864;SHT30;52639;51.180;20.460;2023-10-09T00:14:51;-1.98;84.87
65864;SHT30;52639;51.180;20.460;2023-10-09T00:18:56;-1.94;84.88
65864;SHT30;52639;51.180;20.460;2023-10-09T00:23:13;-2.00;84.90
65864;SHT30;52639;51.180;20.460;2023-10-09T00:27:18;-1.98;84.84
65864;SHT30;52639;51.180;20.460;2023-10-09T00:31:23;-1.94;85.57
65864;SHT30;52639;51.180;20.460;2023-10-09T00:35:31;-1.90;85.42
65864;SHT30;52639;51.180;20.460;2023-10-09T00:39:48;-1.84;85.29
65864;SHT30;52639;51.180;20.460;2023-10-09T00:43:58;-1.78;85.63
65864;SHT30;52639;51.180;20.460;2023-10-09T00:48:01;-1.76;86.61
65864;SHT30;52639;51.180;20.460;2023-10-09T00:52:05;-1.71;86.46
65864;SHT30;52639;51.180;20.460;2023-10-09T00:56:18;-1.70;87.23
65864;SHT30;52639;51.180;20.460;2023-10-09T01:00:31;-1.66;86.34
65864;SHT30;52639;51.180;20.460;2023-10-09T01:04:46;-1.62;86.03
65864;SHT30;52639;51.180;20.460;2023-10-09T01:08:49;-1.56;85.65
65864;SHT30;52639;51.180;20.460;2023-10-09T01:13:10;-1.56;85.56
65864;SHT30;52639;51.180;20.460;2023-10-09T01:17:14;-1.53;85.44
65864;SHT30;52639;51.180;20.460;2023-10-09T01:21:36;-1.50;85.51
65864;SHT30;52639;51.180;20.460;2023-10-09T01:25:43;-1.46;85.52
65864;SHT30;52639;51.180;20.460;2023-10-09T01:29:51;-1.40;86.31
65864;SHT30;52639;51.180;20.460;2023-10-09T01:33:53;-1.39;85.89
65864;SHT30;52639;51.180;20.460;2023-10-09T01:38:00;-1.39;85.72
65864;SHT30;52639;51.180;20.460;2023-10-09T01:42:06;-1.32;85.54
65864;SHT30;52639;51.180;20.460;2023-10-09T01:46:11;-1.31;85.65
65864;SHT30;52639;51.180;20.460;2023-10-09T01:50:25;-1.35;85.28
65864;SHT30;52639;51.180;20.460;2023-10-09T01:54:32;-1.33;85.64
65864;SHT30;52639;51.180;20.460;2023-10-09T01:58:41;-1.33;85.88
65864;SHT30;52639;51.180;20.460;2023-10-09T02:02:47;-1.29;85.94
65864;SHT30;52639;51.180;20.460;2023-10-09T02:06:51;-1.29;85.83
65864;SHT30;52639;51.180;20.460;2023-10-09T02:10:54;-1.20;85.73
65864;SHT30;52639;51.180;20.460;2023-10-09T02:14:59;-1.22;85.50
65864;SHT30;52639;51.180;20.460;2023-10-09T02:19:07;-1.25;85.76
65864;SHT30;52639;51.180;20.460;2023-10-09T02:23:30;-1.19;86.01
65864;SHT30;52639;51.180;20.460;2023-10-09T02:27:40;-1.20;85.78
65864;SHT30;52639;51.180;20.460;2023-10-09T02:31:55;-1.17;85.77
65864;SHT30;52639;51.180;20.460;2023-10-09T02:36:02;-1.16;85.73
65864;SHT30;52639;51.180;20.460;2023-10-09T02:40:08;-1.15;85.61
65864;SHT30;52639;51.180;20.460;2023-10-09T02:44:16;-1.12;85.65
65864;SHT30;52639;51.180;20.460;2023-10-09T02:48:27;-1.06;85.47
65864;SHT30;52639;51.180;20.460;2023-10-09T02:52:35;-1.05;85.59
65864;SHT30;52639;51.180;20.460;2023-10-09T02:56:42;-1.01;85.56
65864;SHT30;52639;51.180;20.460;2023-10-09T03:00:48;-0.99;85.63
65864;SHT30;52639;51.180;20.460;2023-10-09T03:04:54;-0.99;85.59
65864;SHT30;52639;51.180;20.460;2023-10-09T03:08:57;-1.01;86.13
65864;SHT30;52639;51.180;20.460;2023-10-09T03:13:00;-0.98;85.84
65864;SHT30;52639;51.180;20.460;2023-10-09T03:17:05;-0.98;85.96
65864;SHT30;52639;51.180;20.460;2023-10-09T03:21:16;-0.96;85.69
65864;SHT30;52639;51.180;20.460;2023-10-09T03:25:19;-0.96;85.74
65864;SHT30;52639;51.180;20.460;2023-10-09T03:29:23;-0.96;85.75
65864;SHT30;52639;51.180;20.460;2023-10-09T03:33:28;-0.91;85.63
65864;SHT30;52639;51.180;20.460;2023-10-09T03:37:36;-0.92;85.57
65864;SHT30;52639;51.180;20.460;2023-10-09T03:41:40;-0.93;85.68
65864;SHT30;52639;51.180;20.460;2023-10-09T03:45:45;-0.91;85.72
65864;SHT30;52639;51.180;20.460;2023-10-09T03:49:53;-0.89;86.03
65864;SHT30;52639;51.180;20.460;2023-10-09T03:53:59;-0.91;86.01
65864;SHT30;52639;51.180;20.460;2023-10-09T03:58:07;-0.85;86.02
65864;SHT30;52639;51.180;20.460;2023-10-09T04:02:13;-0.81;85.97
65864;SHT30;52639;51.180;20.460;2023-10-09T04:06:17;-0.77;85.82
65864;SHT30;52639;51.180;20.460;2023-10-09T04:10:23;-0.78;85.84
65864;SHT30;52639;51.180;20.460;2023-10-09T04:14:42;-0.75;85.92
65864;SHT30;52639;51.180;20.460;2023-10-09T04:18:52;-0.65;85.89
65864;SHT30;52639;51.180;20.460;2023-10-09T04:22:57;-0.60;85.75
65864;SHT30;52639;51.180;20.460;2023-10-09T04:27:08;-0.50;85.68
65864;SHT30;52639;51.180;20.460;2023-10-09T04:31:11;-0.50;85.67
65864;SHT30;52639;51.180;20.460;2023-10-09T04:35:19;-0.51;85.85
65864;SHT30;52639;51.180;20.460;2023-10-09T04:39:25;-0.45;85.92
65864;SHT30;52639;51.180;20.460;2023-10-09T04:43:40;-0.42;86.28
65864;SHT30;52639;51.180;20.460;2023-10-09T04:47:45;-0.36;86.29
65864;SHT30;52639;51.180;20.460;2023-10-09T04:52:08;-0.28;86.15
65864;SHT30;52639;51.180;20.460;2023-10-09T04:56:19;-0.27;86.76
65864;SHT30;52639;51.180;20.460;2023-10-09T05:00:27;-0.20;87.04
65864;SHT30;52639;51.180;20.460;2023-10-09T05:04:52;-0.10;87.42
65864;SHT30;52639;51.180;20.460;2023-10-09T05:09:16;0.00;87.33
65864;SHT30;52639;51.180;20.460;2023-10-09T05:13:22;0.07;87.39
65864;SHT30;52639;51.180;20.460;2023-10-09T05:17:45;0.20;87.64
65864;SHT30;52639;51.180;20.460;2023-10-09T05:21:57;0.25;88.01
65864;SHT30;52639;51.180;20.460;2023-10-09T05:26:06;0.32;88.32
65864;SHT30;52639;51.180;20.460;2023-10-09T05:30:28;0.38;88.41
65864;SHT30;52639;51.180;20.460;2023-10-09T05:34:37;0.50;88.23
65864;SHT30;52639;51.180;20.460;2023-10-09T05:39:00;0.64;87.74
65864;SHT30;52639;51.180;20.460;2023-10-09T05:43:20;0.73;87.87
65864;SHT30;52639;51.180;20.460;2023-10-09T05:47:37;0.81;88.41
65864;SHT30;52639;51.180;20.460;2023-10-09T05:51:50;0.91;88.47
65864;SHT30;52639;51.180;20.460;2023-10-09T05:56:16;1.02;89.10
65864;SHT30;52639;51.180;20.460;2023-10-09T06:00:36;1.10;89.15
65864;SHT30;52639;51.180;20.460;2023-10-09T06:04:55;1.19;89.05
65864;SHT30;52639;51.180;20.460;2023-10-09T06:09:01;1.26;88.18
65864;SHT30;52639;51.180;20.460;2023-10-09T06:13:30;1.39;88.09
65864;SHT30;52639;51.180;20.460;2023-10-09T06:17:46;1.56;87.33
65864;SHT30;52639;51.180;20.460;2023-10-09T06:21:53;1.59;87.50
65864;SHT30;52639;51.180;20.460;2023-10-09T06:26:17;1.71;87.11
65864;SHT30;52639;51.180;20.460;2023-10-09T06:30:28;1.78;87.61
65864;SHT30;52639;51.180;20.460;2023-10-09T06:34:36;1.80;87.89
65864;SHT30;52639;51.180;20.460;2023-10-09T06:38:45;1.85;88.04
65864;SHT30;52639;51.180;20.460;2023-10-09T06:43:16;1.93;87.94
65864;SHT30;52639;51.180;20.460;2023-10-09T06:47:18;2.02;87.61
65864;SHT30;52639;51.180;20.460;2023-10-09T06:51:25;2.10;87.40
65864;SHT30;52639;51.180;20.460;2023-10-09T06:55:42;2.17;87.08
65864;SHT30;52639;51.180;20.460;2023-10-09T07:00:00;2.15;87.15
65864;SHT30;52639;51.180;20.460;2023-10-09T07:04:32;2.29;87.09
65864;SHT30;52639;51.180;20.460;2023-10-09T07:08:48;2.41;86.74
65864;SHT30;52639;51.180;20.460;2023-10-09T07:13:12;2.53;86.37
65864;SHT30;52639;51.180;20.460;2023-10-09T07:17:16;2.77;85.52
65864;SHT30;52639;51.180;20.460;2023-10-09T07:21:23;2.97;85.23
65864;SHT30;52639;51.180;20.460;2023-10-09T07:25:30;3.17;84.73
65864;SHT30;52639;51.180;20.460;2023-10-09T07:29:56;3.45;84.70
65864;SHT30;52639;51.180;20.460;2023-10-09T07:34:02;3.88;84.04
65864;SHT30;52639;51.180;20.460;2023-10-09T07:38:26;4.20;83.63
65864;SHT30;52639;51.180;20.460;2023-10-09T07:42:31;4.66;83.53
65864;SHT30;52639;51.180;20.460;2023-10-09T07:46:45;5.27;82.60
65864;SHT30;52639;51.180;20.460;2023-10-09T07:51:16;5.98;81.83
65864;SHT30;52639;51.180;20.460;2023-10-09T07:55:21;6.50;81.09
65864;SHT30;52639;51.180;20.460;2023-10-09T07:59:40;6.81;80.63
65864;SHT30;52639;51.180;20.460;2023-10-09T08:03:51;6.94;80.76
65864;SHT30;52639;51.180;20.460;2023-10-09T08:08:04;7.00;81.08
65864;SHT30;52639;51.180;20.460;2023-10-09T08:12:41;6.83;81.49
65864;SHT30;52639;51.180;20.460;2023-10-09T08:16:58;6.83;81.71
65864;SHT30;52639;51.180;20.460;2023-10-09T08:21:12;6.83;81.85
65864;SHT30;52639;51.180;20.460;2023-10-09T08:25:47;6.81;81.94
65864;SHT30;52639;51.180;20.460;2023-10-09T08:29:59;6.76;81.88
65864;SHT30;52639;51.180;20.460;2023-10-09T08:34:29;6.73;82.02
65864;SHT30;52639;51.180;20.460;2023-10-09T08:38:50;6.61;82.12
65864;SHT30;52639;51.180;20.460;2023-10-09T08:43:08;6.81;81.80
65864;SHT30;52639;51.180;20.460;2023-10-09T08:47:13;6.98;81.38
65864;SHT30;52639;51.180;20.460;2023-10-09T08:51:18;7.15;81.13
65864;SHT30;52639;51.180;20.460;2023-10-09T08:55:22;7.35;80.69
65864;SHT30;52639;51.180;20.460;2023-10-09T08:59:27;7.28;80.80
65864;SHT30;52639;51.180;20.460;2023-10-09T09:03:38;7.16;81.31
65864;SHT30;52639;51.180;20.460;2023-10-09T09:07:41;7.35;81.35
65864;SHT30;52639;51.180;20.460;2023-10-09T09:11:44;7.39;80.90
65864;SHT30;52639;51.180;20.460;2023-10-09T09:15:53;7.45;81.23
65864;SHT30;52639;51.180;20.460;2023-10-09T09:19:58;7.46;81.32
65864;SHT30;52639;51.180;20.460;2023-10-09T09:24:01;7.58;81.28
65864;SHT30;52639;51.180;20.460;2023-10-09T09:28:07;7.67;81.06
65864;SHT30;52639;51.180;20.460;2023-10-09T09:32:15;7.86;81.04
65864;SHT30;52639;51.180;20.460;2023-10-09T09:36:21;7.93;81.26
65864;SHT30;52639;51.180;20.460;2023-10-09T09:40:28;7.96;81.31
65864;SHT30;52639;51.180;20.460;2023-10-09T09:44:31;8.04;81.25
65864;SHT30;52639;51.180;20.460;2023-10-09T09:48:39;8.16;81.05
65864;SHT30;52639;51.180;20.460;2023-10-09T09:52:47;8.28;80.95
65864;SHT30;52639;51.180;20.460;2023-10-09T09:56:57;8.30;80.96
65864;SHT30;52639;51.180;20.460;2023-10-09T10:01:03;8.13;81.32
65864;SHT30;52639;51.180;20.460;2023-10-09T10:05:21;8.06;81.59
65864;SHT30;52639;51.180;20.460;2023-10-09T10:09:35;8.20;81.37
65864;SHT30;52639;51.180;20.460;2023-10-09T10:13:55;8.24;81.28
65864;SHT30;52639;51.180;20.460;2023-10-09T10:18:19;8.42;80.88
65864;SHT30;52639;51.180;20.460;2023-10-09T10:22:38;8.31;81.18
65864;SHT30;52639;51.180;20.460;2023-10-09T10:27:17;8.34;81.32
65864;SHT30;52639;51.180;20.460;2023-10-09T10:31:51;8.47;80.83
65864;SHT30;52639;51.180;20.460;2023-10-09T10:36:05;8.58;80.71
65864;SHT30;52639;51.180;20.460;2023-10-09T10:40:44;8.48;80.90
65864;SHT30;52639;51.180;20.460;2023-10-09T10:45:17;8.60;80.60
65864;SHT30;52639;51.180;20.460;2023-10-09T10:49:37;8.81;80.03
65864;SHT30;52639;51.180;20.460;2023-10-09T10:53:56;9.02;79.91
65864;SHT30;52639;51.180;20.460;2023-10-09T10:58:34;9.01;79.97
65864;SHT30;52639;51.180;20.460;2023-10-09T11:02:58;8.99;80.22
65864;SHT30;52639;51.180;20.460;2023-10-09T11:07:31;9.29;79.39
65864;SHT30;52639;51.180;20.460;2023-10-09T11:11:50;9.29;79.53
65864;SHT30;52639;51.180;20.460;2023-10-09T11:16:04;9.26;79.78
65864;SHT30;52639;51.180;20.460;2023-10-09T11:20:43;9.35;79.63
65864;SHT30;52639;51.180;20.460;2023-10-09T11:25:01;9.02;80.18
65864;SHT30;52639;51.180;20.460;2023-10-09T11:29:18;9.19;79.86
65864;SHT30;52639;51.180;20.460;2023-10-09T11:33:51;9.18;79.62
65864;SHT30;52639;51.180;20.460;2023-10-09T11:37:56;9.23;79.58
65864;SHT30;52639;51.180;20.460;2023-10-09T11:42:05;9.08;79.79
65864;SHT30;52639;51.180;20.460;2023-10-09T11:46:37;9.33;79.64
65864;SHT30;52639;51.180;20.460;2023-10-09T11:51:05;9.42;79.29
65864;SHT30;52639;51.180;20.460;2023-10-09T11:55:37;9.39;79.67
65864;SHT30;52639;51.180;20.460;2023-10-09T11:59:40;9.59;79.11
65864;SHT30;52639;51.180;20.460;2023-10-09T12:04:05;9.64;79.19
65864;SHT30;52639;51.180;20.460;2023-10-09T12:08:26;9.74;78.90
65864;SHT30;52639;51.180;20.460;2023-10-09T12:12:29;9.91;78.75
65864;SHT30;52639;51.180;20.460;2023-10-09T12:16:33;9.71;78.39
65864;SHT30;52639;51.180;20.460;2023-10-09T12:20:36;10.11;78.19
65864;SHT30;52639;51.180;20.460;2023-10-09T12:24:42;10.10;78.22
65864;SHT30;52639;51.180;20.460;2023-10-09T12:28:46;10.00;78.49
65864;SHT30;52639;51.180;20.460;2023-10-09T12:32:51;10.15;77.87
65864;SHT30;52639;51.180;20.460;2023-10-09T12:36:54;10.07;78.08
65864;SHT30;52639;51.180;20.460;2023-10-09T12:41:03;10.21;78.27
65864;SHT30;52639;51.180;20.460;2023-10-09T12:45:21;10.24;77.96
65864;SHT30;52639;51.180;20.460;2023-10-09T12:49:30;10.00;78.46
65864;SHT30;52639;51.180;20.460;2023-10-09T12:53:34;10.07;78.01
65864;SHT30;52639;51.180;20.460;2023-10-09T12:57:51;10.11;78.14
65864;SHT30;52639;51.180;20.460;2023-10-09T13:02:13;10.11;77.84
65864;SHT30;52639;51.180;20.460;2023-10-09T13:06:38;10.04;77.75
65864;SHT30;52639;51.180;20.460;2023-10-09T13:11:03;9.93;77.80
65864;SHT30;52639;51.180;20.460;2023-10-09T13:15:14;9.98;77.30
65864;SHT30;52639;51.180;20.460;2023-10-09T13:19:56;9.90;77.52
65864;SHT30;52639;51.180;20.460;2023-10-09T13:24:03;10.03;76.82
65864;SHT30;52639;51.180;20.460;2023-10-09T13:28:08;10.18;76.51
65864;SHT30;52639;51.180;20.460;2023-10-09T13:32:12;9.93;76.79
65864;SHT30;52639;51.180;20.460;2023-10-09T13:36:16;9.79;76.62
65864;SHT30;52639;51.180;20.460;2023-10-09T13:40:21;9.74;76.39
65864;SHT30;52639;51.180;20.460;2023-10-09T13:44:31;9.74;76.57
65864;SHT30;52639;51.180;20.460;2023-10-09T13:48:37;9.77;76.15
65864;SHT30;52639;51.180;20.460;2023-10-09T13:52:42;9.79;76.19
65864;SHT30;52639;51.180;20.460;2023-10-09T13:56:45;9.29;76.64
65864;SHT30;52639;51.180;20.460;2023-10-09T14:00:49;9.22;76.97
65864;SHT30;52639;51.180;20.460;2023-10-09T14:04:56;8.92;76.71
65864;SHT30;52639;51.180;20.460;2023-10-09T14:09:03;8.85;77.44
65864;SHT30;52639;51.180;20.460;2023-10-09T14:13:06;8.82;77.28
65864;SHT30;52639;51.180;20.460;2023-10-09T14:17:14;8.84;77.22
65864;SHT30;52639;51.180;20.460;2023-10-09T14:21:23;8.78;77.24
65864;SHT30;52639;51.180;20.460;2023-10-09T14:25:29;8.75;77.20
65864;SHT30;52639;51.180;20.460;2023-10-09T14:29:32;8.84;76.97
65864;SHT30;52639;51.180;20.460;2023-10-09T14:33:47;8.88;76.95
65864;SHT30;52639;51.180;20.460;2023-10-09T14:37:57;8.71;77.22
65864;SHT30;52639;51.180;20.460;2023-10-09T14:42:02;8.51;77.52
65864;SHT30;52639;51.180;20.460;2023-10-09T14:46:13;8.37;77.69
65864;SHT30;52639;51.180;20.460;2023-10-09T14:50:18;8.38;77.80
65864;SHT30;52639;51.180;20.460;2023-10-09T14:54:27;8.42;77.91
65864;SHT30;52639;51.180;20.460;2023-10-09T14:58:38;8.51;77.80
65864;SHT30;52639;51.180;20.460;2023-10-09T15:02:46;8.48;77.85
65864;SHT30;52639;51.180;20.460;2023-10-09T15:06:49;8.45;78.02
65864;SHT30;52639;51.180;20.460;2023-10-09T15:10:55;8.30;78.31
65864;SHT30;52639;51.180;20.460;2023-10-09T15:15:11;8.24;78.38
65864;SHT30;52639;51.180;20.460;2023-10-09T15:19:15;8.18;78.40
65864;SHT30;52639;51.180;20.460;2023-10-09T15:23:18;8.14;78.35
65864;SHT30;52639;51.180;20.460;2023-10-09T15:27:26;8.04;78.62
65864;SHT30;52639;51.180;20.460;2023-10-09T15:31:30;7.83;79.00
65864;SHT30;52639;51.180;20.460;2023-10-09T15:35:34;7.62;79.61
65864;SHT30;52639;51.180;20.460;2023-10-09T15:39:39;7.52;79.75
65864;SHT30;52639;51.180;20.460;2023-10-09T15:43:45;7.33;80.09
65864;SHT30;52639;51.180;20.460;2023-10-09T15:47:48;7.14;80.68
65864;SHT30;52639;51.180;20.460;2023-10-09T15:51:52;7.08;80.83
65864;SHT30;52639;51.180;20.460;2023-10-09T15:55:56;7.02;80.81
65864;SHT30;52639;51.180;20.460;2023-10-09T16:00:01;6.78;81.18
65864;SHT30;52639;51.180;20.460;2023-10-09T16:04:42;6.57;81.50
65864;SHT30;52639;51.180;20.460;2023-10-09T16:08:47;6.30;81.88
65864;SHT30;52639;51.180;20.460;2023-10-09T16:13:05;5.99;82.20
65864;SHT30;52639;51.180;20.460;2023-10-09T16:17:15;5.75;82.46
65864;SHT30;52639;51.180;20.460;2023-10-09T16:21:23;5.47;82.70
65864;SHT30;52639;51.180;20.460;2023-10-09T16:25:30;5.28;82.96
65864;SHT30;52639;51.180;20.460;2023-10-09T16:29:36;5.20;83.17
65864;SHT30;52639;51.180;20.460;2023-10-09T16:33:43;5.10;83.03
65864;SHT30;52639;51.180;20.460;2023-10-09T16:37:48;5.01;83.12
65864;SHT30;52639;51.180;20.460;2023-10-09T16:41:53;4.81;83.11
65864;SHT30;52639;51.180;20.460;2023-10-09T16:46:01;4.53;83.48
65864;SHT30;52639;51.180;20.460;2023-10-09T16:50:11;4.25;83.54
65864;SHT30;52639;51.180;20.460;2023-10-09T16:54:17;3.99;83.77
65864;SHT30;52639;51.180;20.460;2023-10-09T16:58:26;3.77;83.90
65864;SHT30;52639;51.180;20.460;2023-10-09T17:02:30;3.60;84.29
65864;SHT30;52639;51.180;20.460;2023-10-09T17:06:41;3.34;84.11
65864;SHT30;52639;51.180;20.460;2023-10-09T17:10:46;3.17;84.24
65864;SHT30;52639;51.180;20.460;2023-10-09T17:14:53;2.92;84.40
65864;SHT30;52639;51.180;20.460;2023-10-09T17:18:59;2.76;84.61
65864;SHT30;52639;51.180;20.460;2023-10-09T17:23:12;2.58;84.60
65864;SHT30;52639;51.180;20.460;2023-10-09T17:27:20;2.42;84.61
65864;SHT30;52639;51.180;20.460;2023-10-09T17:31:26;2.44;84.48
65864;SHT30;52639;51.180;20.460;2023-10-09T17:35:39;2.26;84.36
65864;SHT30;52639;51.180;20.460;2023-10-09T17:39:48;2.22;84.39
65864;SHT30;52639;51.180;20.460;2023-10-09T17:43:53;2.12;84.62
65864;SHT30;52639;51.180;20.460;2023-10-09T17:48:00;1.97;84.64
65864;SHT30;52639;51.180;20.460;2023-10-09T17:52:12;1.78;84.36
65864;SHT30;52639;51.180;20.460;2023-10-09T17:56:21;1.80;84.91
65864;SHT30;52639;51.180;20.460;2023-10-09T18:00:31;1.75;85.11
65864;SHT30;52639;51.180;20.460;2023-10-09T18:04:43;1.91;84.38
65864;SHT30;52639;51.180;20.460;2023-10-09T18:08:54;1.82;84.18
65864;SHT30;52639;51.180;20.460;2023-10-09T18:13:27;1.68;84.41
65864;SHT30;52639;51.180;20.460;2023-10-09T18:17:32;1.67;84.73
65864;SHT30;52639;51.180;20.460;2023-10-09T18:22:00;1.49;84.66
65864;SHT30;52639;51.180;20.460;2023-10-09T18:26:19;1.26;84.69
65864;SHT30;52639;51.180;20.460;2023-10-09T18:30:28;1.15;85.04
65864;SHT30;52639;51.180;20.460;2023-10-09T18:34:34;1.17;85.35
65864;SHT30;52639;51.180;20.460;2023-10-09T18:38:44;1.22;85.10
65864;SHT30;52639;51.180;20.460;2023-10-09T18:42:53;1.09;85.29
65864;SHT30;52639;51.180;20.460;2023-10-09T18:47:00;1.07;85.09
65864;SHT30;52639;51.180;20.460;2023-10-09T18:51:14;0.99;85.15
65864;SHT30;52639;51.180;20.460;2023-10-09T18:55:53;0.81;85.20
65864;SHT30;52639;51.180;20.460;2023-10-09T19:00:13;0.73;85.64
65864;SHT30;52639;51.180;20.460;2023-10-09T19:04:52;0.66;85.67
65864;SHT30;52639;51.180;20.460;2023-10-09T19:09:29;0.64;85.72
65864;SHT30;52639;51.180;20.460;2023-10-09T19:13:55;0.48;85.99
65864;SHT30;52639;51.180;20.460;2023-10-09T19:18:00;0.41;86.10
65864;SHT30;52639;51.180;20.460;2023-10-09T19:22:20;0.40;86.03
65864;SHT30;52639;51.180;20.460;2023-10-09T19:26:36;0.22;85.61
65864;SHT30;52639;51.180;20.460;2023-10-09T19:30:41;0.14;86.15
65864;SHT30;52639;51.180;20.460;2023-10-09T19:34:49;0.20;86.96
65864;SHT30;52639;51.180;20.460;2023-10-09T19:39:24;0.10;86.44
65864;SHT30;52639;51.180;20.460;2023-10-09T19:43:41;-0.14;86.12
65864;SHT30;52639;51.180;20.460;2023-10-09T19:47:47;-0.17;86.55
65864;SHT30;52639;51.180;20.460;2023-10-09T19:52:07;-0.40;86.22
65864;SHT30;52639;51.180;20.460;2023-10-09T19:56:14;-0.37;86.59
65864;SHT30;52639;51.180;20.460;2023-10-09T20:00:21;-0.37;86.97
65864;SHT30;52639;51.180;20.460;2023-10-09T20:04:28;-0.41;86.39
65864;SHT30;52639;51.180;20.460;2023-10-09T20:08:33;-0.45;86.79
65864;SHT30;52639;51.180;20.460;2023-10-09T20:12:38;-0.42;86.45
65864;SHT30;52639;51.180;20.460;2023-10-09T20:16:44;-0.57;86.17
65864;SHT30;52639;51.180;20.460;2023-10-09T20:20:50;-0.72;86.33
65864;SHT30;52639;51.180;20.460;2023-10-09T20:24:54;-0.72;86.81
65864;SHT30;52639;51.180;20.460;2023-10-09T20:29:00;-0.72;86.51
65864;SHT30;52639;51.180;20.460;2023-10-09T20:33:04;-0.75;86.54
65864;SHT30;52639;51.180;20.460;2023-10-09T20:37:08;-0.85;86.50
65864;SHT30;52639;51.180;20.460;2023-10-09T20:41:17;-0.95;86.76
65864;SHT30;52639;51.180;20.460;2023-10-09T20:45:25;-0.87;87.39
65864;SHT30;52639;51.180;20.460;2023-10-09T20:49:28;-0.96;86.80
65864;SHT30;52639;51.180;20.460;2023-10-09T20:53:57;-1.06;86.82
65864;SHT30;52639;51.180;20.460;2023-10-09T20:58:01;-1.06;86.94
65864;SHT30;52639;51.180;20.460;2023-10-09T21:02:07;-1.08;87.19
65864;SHT30;52639;51.180;20.460;2023-10-09T21:06:10;-1.09;87.78
65864;SHT30;52639;51.180;20.460;2023-10-09T21:10:14;-1.17;87.16
65864;SHT30;52639;51.180;20.460;2023-10-09T21:14:18;-1.22;87.22
65864;SHT30;52639;51.180;20.460;2023-10-09T21:18:23;-1.28;87.28
65864;SHT30;52639;51.180;20.460;2023-10-09T21:22:26;-1.26;87.09
65864;SHT30;52639;51.180;20.460;2023-10-09T21:26:31;-1.29;87.16
65864;SHT30;52639;51.180;20.460;2023-10-09T21:30:34;-1.29;87.19
65864;SHT30;52639;51.180;20.460;2023-10-09T21:34:40;-1.31;86.88
65864;SHT30;52639;51.180;20.460;2023-10-09T21:38:43;-1.36;86.95
65864;SHT30;52639;51.180;20.460;2023-10-09T21:42:49;-1.50;86.83
65864;SHT30;52639;51.180;20.460;2023-10-09T21:46:54;-1.52;87.30
65864;SHT30;52639;51.180;20.460;2023-10-09T21:51:12;-1.59;87.06
65864;SHT30;52639;51.180;20.460;2023-10-09T21:55:17;-1.62;87.08
65864;SHT30;52639;51.180;20.460;2023-10-09T21:59:21;-1.68;86.94
65864;SHT30;52639;51.180;20.460;2023-10-09T22:03:33;-1.77;87.00
65864;SHT30;52639;51.180;20.460;2023-10-09T22:07:39;-1.77;87.30
65864;SHT30;52639;51.180;20.460;2023-10-09T22:11:46;-1.71;87.36
65864;SHT30;52639;51.180;20.460;2023-10-09T22:15:58;-1.67;87.12
65864;SHT30;52639;51.180;20.460;2023-10-09T22:20:01;-1.64;87.19
65864;SHT30;52639;51.180;20.460;2023-10-09T22:24:14;-1.64;87.08
65864;SHT30;52639;51.180;20.460;2023-10-09T22:28:32;-1.66;87.02
65864;SHT30;52639;51.180;20.460;2023-10-09T22:32:35;-1.62;87.36
65864;SHT30;52639;51.180;20.460;2023-10-09T22:36:52;-1.62;87.27
65864;SHT30;52639;51.180;20.460;2023-10-09T22:41:06;-1.68;86.86
65864;SHT30;52639;51.180;20.460;2023-10-09T22:45:09;-1.73;87.13
65864;SHT30;52639;51.180;20.460;2023-10-09T22:53:26;-1.73;87.56
65864;SHT30;52639;51.180;20.460;2023-10-09T22:57:40;-1.71;88.27
65864;SHT30;52639;51.180;20.460;2023-10-09T23:01:44;-1.63;87.97
65864;SHT30;52639;51.180;20.460;2023-10-09T23:05:47;-1.63;87.25
65864;SHT30;52639;51.180;20.460;2023-10-09T23:09:53;-1.66;87.23
65864;SHT30;52639;51.180;20.460;2023-10-09T23:14:19;-1.71;87.03
65864;SHT30;52639;51.180;20.460;2023-10-09T23:18:42;-1.70;87.58
65864;SHT30;52639;51.180;20.460;2023-10-09T23:23:11;-1.63;87.61
65864;SHT30;52639;51.180;20.460;2023-10-09T23:27:30;-1.68;87.22
65864;SHT30;52639;51.180;20.460;2023-10-09T23:31:53;-1.70;87.40
65864;SHT30;52639;51.180;20.460;2023-10-09T23:36:17;-1.70;87.48
65864;SHT30;52639;51.180;20.460;2023-10-09T23:40:27;-1.71;87.55
65864;SHT30;52639;51.180;20.460;2023-10-09T23:44:43;-1.71;87.65
65864;SHT30;52639;51.180;20.460;2023-10-09T23:48:50;-1.80;87.37
65864;SHT30;52639;51.180;20.460;2023-10-09T23:52:55;-1.86;87.67
65864;SHT30;52639;51.180;20.460;2023-10-09T23:57:03;-1.90;87.85
